createdAt,value
2018-06-24T00:00:53.392Z,99344.04
2018-06-24T00:02:31.618Z,99455.74
2018-06-24T00:04:09.102Z,99494.62
2018-06-24T00:05:47.532Z,99405.36
2018-06-24T00:07:25.527Z,99326.33
2018-06-24T00:09:02.709Z,99412.09
2018-06-24T00:10:39.136Z,99449.09
2018-06-24T00:12:16.651Z,99484.53
2018-06-24T00:13:53.969Z,99489.32
2018-06-24T00:15:34.538Z,99369.58
2018-06-24T00:17:11.590Z,99280.02
2018-06-24T00:18:48.634Z,99348.55
2018-06-24T00:20:26.350Z,99441.31
2018-06-24T00:22:04.926Z,99520.30
2018-06-24T00:23:41.376Z,99564.94
2018-06-24T00:25:21.342Z,99553.50
2018-06-24T00:26:58.477Z,99530.03
2018-06-24T00:28:34.789Z,99523.47
2018-06-24T00:30:14.061Z,99487.23
2018-06-24T00:31:52.632Z,99487.23
2018-06-24T00:33:30.134Z,99466.91
2018-06-24T00:35:08.856Z,99558.50
2018-06-24T00:36:48.284Z,99547.33
2018-06-24T00:38:30.080Z,99500.09
2018-06-24T00:40:06.727Z,99453.22
2018-06-24T00:41:44.484Z,99394.97
2018-06-24T00:43:26.004Z,99373.82
2018-06-24T00:45:06.266Z,99419.68
2018-06-24T00:46:49.952Z,99527.98
2018-06-24T00:48:40.566Z,99410.34
2018-06-24T00:50:17.729Z,99307.14
2018-06-24T00:51:55.407Z,99203.39
2018-06-24T00:53:31.800Z,99129.75
2018-06-24T00:55:09.045Z,99204.82
2018-06-24T00:56:45.453Z,99305.41
2018-06-24T00:58:22.252Z,99280.23
2018-06-24T01:00:16.077Z,99103.70
2018-06-24T01:01:54.634Z,98984.65
2018-06-24T01:03:31.437Z,98862.22
2018-06-24T01:05:08.561Z,98764.11
2018-06-24T01:06:48.082Z,98676.08
2018-06-24T01:08:25.188Z,98625.54
2018-06-24T01:10:02.109Z,98571.85
2018-06-24T01:11:40.674Z,98516.97
2018-06-24T01:13:17.960Z,98530.15
2018-06-24T01:14:54.935Z,98564.41
2018-06-24T01:16:39.454Z,98540.69
2018-06-24T01:18:15.959Z,98484.82
2018-06-24T01:19:55.162Z,98473.94
2018-06-24T01:21:32.484Z,98537.63
2018-06-24T01:23:10.372Z,98576.73
2018-06-24T01:24:46.693Z,98634.36
2018-06-24T01:26:22.980Z,98722.33
2018-06-24T01:28:00.891Z,98788.25
2018-06-24T01:29:38.066Z,98856.94
2018-06-24T01:31:15.397Z,98955.20
2018-06-24T01:32:52.763Z,99034.62
2018-06-24T01:34:29.359Z,99172.16
2018-06-24T01:36:06.121Z,99293.95
2018-06-24T01:37:43.421Z,99364.97
2018-06-24T01:39:20.795Z,99383.42
2018-06-24T01:40:57.848Z,99410.05
2018-06-24T01:42:35.795Z,99398.14
2018-06-24T01:44:12.393Z,99395.92
2018-06-24T01:45:51.452Z,99390.63
2018-06-24T01:47:31.312Z,99257.75
2018-06-24T01:49:09.215Z,99118.79
2018-06-24T01:50:47.512Z,99075.31
2018-06-24T01:52:24.458Z,99124.25
2018-06-24T01:54:04.488Z,99298.94
2018-06-24T01:55:41.283Z,99381.81
2018-06-24T01:57:20.041Z,99298.85
2018-06-24T01:58:57.134Z,99084.98
2018-06-24T02:00:33.799Z,99021.96
2018-06-24T02:02:10.557Z,99108.78
2018-06-24T02:03:46.918Z,99201.75
2018-06-24T02:05:23.226Z,99253.89
2018-06-24T02:06:59.547Z,99381.02
2018-06-24T02:08:36.737Z,99453.52
2018-06-24T02:10:14.241Z,99464.59
2018-06-24T02:11:50.571Z,99481.80
2018-06-24T02:13:27.104Z,99500.08
2018-06-24T02:15:05.803Z,99501.70
2018-06-24T02:16:43.025Z,99443.43
2018-06-24T02:19:52.609Z,99427.45
2018-06-24T02:21:30.335Z,99406.30
2018-06-24T02:23:06.662Z,99365.34
2018-06-24T02:24:42.971Z,99259.39
2018-06-24T02:26:19.261Z,99198.01
2018-06-24T02:27:55.953Z,99158.37
2018-06-24T02:29:32.166Z,99120.88
2018-06-24T02:31:08.829Z,99117.36
2018-06-24T02:32:45.099Z,99138.47
2018-06-24T02:34:21.715Z,99129.23
2018-06-24T02:35:58.252Z,99129.23
2018-06-24T02:37:34.525Z,99034.92
2018-06-24T02:39:11.700Z,99019.97
2018-06-24T02:40:48.410Z,99076.83
2018-06-24T02:42:24.736Z,99083.07
2018-06-24T02:44:01.052Z,99081.25
2018-06-24T02:45:37.613Z,99113.02
2018-06-24T02:47:14.367Z,99089.61
2018-06-24T02:48:51.516Z,99084.41
2018-06-24T02:50:27.806Z,99090.95
2018-06-24T02:52:04.628Z,99080.38
2018-06-24T02:53:44.841Z,99114.37
2018-06-24T02:55:21.631Z,99084.33
2018-06-24T02:56:59.202Z,99054.89
2018-06-24T02:58:37.886Z,98997.13
2018-06-24T03:00:20.658Z,98952.16
2018-06-24T03:01:59.297Z,99062.35
2018-06-24T03:03:37.980Z,99128.38
2018-06-24T03:05:14.782Z,99065.52
2018-06-24T03:06:52.563Z,99096.33
2018-06-24T03:08:29.467Z,99198.22
2018-06-24T03:10:06.557Z,99197.23
2018-06-24T03:11:43.795Z,99138.56
2018-06-24T03:13:30.482Z,99086.15
2018-06-24T03:15:08.397Z,98984.75
2018-06-24T03:16:45.006Z,98990.51
2018-06-24T03:18:21.345Z,98900.67
2018-06-24T03:19:58.530Z,98885.26
2018-06-24T03:21:37.593Z,98880.45
2018-06-24T03:23:13.931Z,98941.22
2018-06-24T03:24:50.245Z,98881.32
2018-06-24T03:26:27.204Z,98911.72
2018-06-24T03:28:03.958Z,98953.98
2018-06-24T03:29:42.325Z,98974.69
2018-06-24T03:31:19.071Z,98942.20
2018-06-24T03:32:55.748Z,98962.78
2018-06-24T03:34:32.249Z,99017.07
2018-06-24T03:36:08.481Z,99004.33
2018-06-24T03:37:45.541Z,99025.91
2018-06-24T03:39:21.960Z,99007.79
2018-06-24T03:40:58.207Z,98952.64
2018-06-24T03:42:34.633Z,98875.66
2018-06-24T03:44:11.033Z,98829.86
2018-06-24T03:45:48.225Z,98803.89
2018-06-24T03:47:24.472Z,98725.15
2018-06-24T03:49:00.750Z,98685.11
2018-06-24T03:50:37.042Z,98598.98
2018-06-24T03:52:13.769Z,98565.01
2018-06-24T03:53:50.593Z,98562.33
2018-06-24T03:55:26.832Z,98593.72
2018-06-24T03:57:03.453Z,98583.20
2018-06-24T03:58:40.589Z,98636.29
2018-06-24T04:00:17.335Z,98660.50
2018-06-24T04:01:54.090Z,98711.53
2018-06-24T04:03:31.025Z,98710.67
2018-06-24T04:05:08.731Z,98705.30
2018-06-24T04:06:45.008Z,98709.45
2018-06-24T04:08:21.306Z,98720.45
2018-06-24T04:09:57.632Z,98785.95
2018-06-24T04:11:34.545Z,98821.63
2018-06-24T04:13:10.802Z,98827.48
2018-06-24T04:14:47.862Z,98743.23
2018-06-24T04:16:24.297Z,98829.20
2018-06-24T04:18:00.869Z,98940.56
2018-06-24T04:19:37.269Z,99031.75
2018-06-24T04:21:15.694Z,99062.73
2018-06-24T04:22:52.241Z,99082.03
2018-06-24T04:24:28.598Z,99117.23
2018-06-24T04:26:05.293Z,99076.39
2018-06-24T04:27:42.964Z,98958.19
2018-06-24T04:29:20.281Z,98979.89
2018-06-24T04:30:57.447Z,99041.16
2018-06-24T04:32:34.505Z,99090.48
2018-06-24T04:34:10.758Z,99191.19
2018-06-24T04:35:47.190Z,99306.73
2018-06-24T04:37:29.354Z,99366.68
2018-06-24T04:39:08.066Z,99401.67
2018-06-24T04:40:45.000Z,99449.84
2018-06-24T04:42:21.334Z,99494.45
2018-06-24T04:43:58.162Z,99539.95
2018-06-24T04:45:35.376Z,99566.93
2018-06-24T04:47:11.937Z,99597.53
2018-06-24T04:48:48.267Z,99601.00
2018-06-24T04:50:24.946Z,99606.39
2018-06-24T04:52:01.156Z,99614.86
2018-06-24T04:53:37.410Z,99697.06
2018-06-24T04:55:13.707Z,99742.61
2018-06-24T04:56:50.472Z,99781.64
2018-06-24T04:58:26.761Z,99818.41
2018-06-24T05:00:05.823Z,99913.19
2018-06-24T05:01:42.502Z,100027.58
2018-06-24T05:03:19.488Z,100155.35
2018-06-24T05:04:56.036Z,100177.08
2018-06-24T05:06:32.823Z,100107.36
2018-06-24T05:08:09.665Z,99970.77
2018-06-24T05:09:47.151Z,99872.00
2018-06-24T05:11:23.921Z,99836.64
2018-06-24T05:13:00.205Z,99787.03
2018-06-24T05:14:36.789Z,99728.08
2018-06-24T05:16:13.839Z,99600.22
2018-06-24T05:17:50.105Z,99372.66
2018-06-24T05:19:26.810Z,99227.02
2018-06-24T05:21:03.373Z,99145.84
2018-06-24T05:22:40.051Z,99155.94
2018-06-24T05:24:16.483Z,99086.75
2018-06-24T05:25:54.489Z,99088.56
2018-06-24T05:27:31.832Z,99129.53
2018-06-24T05:29:11.741Z,99207.15
2018-06-24T05:30:48.040Z,99232.30
2018-06-24T05:32:25.665Z,99299.04
2018-06-24T05:34:03.828Z,99316.23
2018-06-24T05:35:43.037Z,99388.98
2018-06-24T05:37:20.085Z,99409.36
2018-06-24T05:38:56.634Z,99396.11
2018-06-24T05:40:33.114Z,99404.09
2018-06-24T05:42:09.997Z,99419.95
2018-06-24T05:43:47.392Z,99446.48
2018-06-24T05:45:23.689Z,99488.49
2018-06-24T05:47:00.992Z,99482.23
2018-06-24T05:48:37.637Z,99448.30
2018-06-24T05:50:14.227Z,99464.16
2018-06-24T05:51:51.417Z,99476.10
2018-06-24T05:53:27.837Z,99364.28
2018-06-24T05:55:04.837Z,99341.80
2018-06-24T05:56:41.162Z,99391.28
2018-06-24T05:58:18.435Z,99374.95
2018-06-24T05:59:55.416Z,99371.01
2018-06-24T06:01:32.458Z,99438.49
2018-06-24T06:03:09.649Z,99435.41
2018-06-24T06:04:46.013Z,99366.50
2018-06-24T06:06:23.090Z,99311.33
2018-06-24T06:08:01.052Z,99292.41
2018-06-24T06:09:37.578Z,99353.73
2018-06-24T06:11:14.016Z,99480.50
2018-06-24T06:12:50.383Z,99507.05
2018-06-24T06:14:27.459Z,99430.98
2018-06-24T06:16:03.710Z,99385.99
2018-06-24T06:17:43.601Z,99388.59
2018-06-24T06:19:20.845Z,99335.66
2018-06-24T06:20:58.325Z,99230.18
2018-06-24T06:22:35.534Z,99232.00
2018-06-24T06:24:11.972Z,99248.23
2018-06-24T06:25:48.327Z,99219.60
2018-06-24T06:27:25.130Z,99271.19
2018-06-24T06:29:01.823Z,99313.06
2018-06-24T06:30:38.527Z,99348.83
2018-06-24T06:32:16.441Z,99439.84
2018-06-24T06:33:53.714Z,99514.95
2018-06-24T06:35:30.627Z,99581.74
2018-06-24T06:37:06.950Z,99624.29
2018-06-24T06:38:45.131Z,99553.05
2018-06-24T06:40:22.514Z,99456.29
2018-06-24T06:41:58.827Z,99481.84
2018-06-24T06:43:35.416Z,99518.12
2018-06-24T06:45:13.159Z,99493.40
2018-06-24T06:46:50.827Z,99463.02
2018-06-24T06:48:28.174Z,99379.78
2018-06-24T06:50:04.630Z,99399.27
2018-06-24T06:51:40.889Z,99446.09
2018-06-24T06:53:17.608Z,99436.36
2018-06-24T06:54:54.562Z,99418.20
2018-06-24T06:56:30.799Z,99403.70
2018-06-24T06:58:07.441Z,99415.61
2018-06-24T06:59:46.544Z,99378.52
2018-06-24T07:01:24.626Z,99370.14
2018-06-24T07:03:00.894Z,99436.87
2018-06-24T07:04:38.267Z,99439.45
2018-06-24T07:06:16.170Z,99440.70
2018-06-24T07:07:53.481Z,99302.20
2018-06-24T07:09:32.907Z,99339.58
2018-06-24T07:11:10.667Z,99386.38
2018-06-24T07:12:48.465Z,99374.88
2018-06-24T07:14:28.473Z,99384.29
2018-06-24T07:16:04.849Z,99476.67
2018-06-24T07:17:41.116Z,99423.11
2018-06-24T07:19:20.570Z,99279.16
2018-06-24T07:20:57.723Z,99132.61
2018-06-24T07:22:34.129Z,99077.13
2018-06-24T07:24:11.015Z,98938.66
2018-06-24T07:25:49.237Z,98959.93
2018-06-24T07:27:26.902Z,99018.92
2018-06-24T07:29:03.302Z,99038.30
2018-06-24T07:30:41.624Z,99095.67
2018-06-24T07:32:19.605Z,99078.39
2018-06-24T07:33:56.643Z,99015.84
2018-06-24T07:35:37.316Z,98966.47
2018-06-24T07:37:23.519Z,98979.30
2018-06-24T07:39:06.691Z,99044.14
2018-06-24T07:40:47.248Z,99118.13
2018-06-24T07:42:25.254Z,99115.44
2018-06-24T07:44:01.718Z,99118.48
2018-06-24T07:45:38.733Z,99047.97
2018-06-24T07:47:16.310Z,99154.77
2018-06-24T07:48:54.580Z,99166.09
2018-06-24T07:50:31.482Z,99206.76
2018-06-24T07:52:10.330Z,99164.00
2018-06-24T07:53:49.010Z,99175.89
2018-06-24T07:55:25.845Z,99240.73
2018-06-24T07:57:03.371Z,99241.12
2018-06-24T07:58:41.542Z,99251.78
2018-06-24T08:00:18.469Z,99199.73
2018-06-24T08:01:56.733Z,99168.78
2018-06-24T08:03:33.477Z,99086.75
2018-06-24T08:05:11.333Z,99011.44
2018-06-24T08:06:49.109Z,99084.53
2018-06-24T08:08:26.302Z,99189.16
2018-06-24T08:10:02.680Z,99235.47
2018-06-24T08:11:40.110Z,99310.97
2018-06-24T08:13:18.146Z,99396.58
2018-06-24T08:14:56.684Z,99459.73
2018-06-24T08:16:35.336Z,99498.61
2018-06-24T08:18:13.262Z,99406.66
2018-06-24T08:19:50.576Z,99460.21
2018-06-24T08:21:31.788Z,99568.09
2018-06-24T08:23:11.316Z,99712.67
2018-06-24T08:24:51.676Z,99833.63
2018-06-24T08:26:33.585Z,99904.39
2018-06-24T08:28:09.976Z,99875.17
2018-06-24T08:29:46.642Z,99828.24
2018-06-24T08:31:23.618Z,99842.91
2018-06-24T08:32:59.921Z,99871.72
2018-06-24T08:34:37.092Z,99842.03
2018-06-24T08:36:16.648Z,99960.82
2018-06-24T08:37:55.213Z,100055.72
2018-06-24T08:39:32.360Z,100057.38
2018-06-24T08:41:12.286Z,100073.78
2018-06-24T08:42:54.217Z,100059.21
2018-06-24T08:44:33.300Z,100063.66
2018-06-24T08:46:18.519Z,100098.66
2018-06-24T08:47:57.195Z,100115.45
2018-06-24T08:49:37.377Z,99980.22
2018-06-24T08:51:16.338Z,99946.19
2018-06-24T08:52:53.345Z,99999.77
2018-06-24T08:54:38.155Z,100080.13
2018-06-24T08:56:14.577Z,100161.30
2018-06-24T08:57:53.613Z,100174.13
2018-06-24T08:59:30.890Z,100203.48
2018-06-24T09:01:07.560Z,100258.06
2018-06-24T09:02:44.811Z,100317.50
2018-06-24T09:04:23.557Z,100409.13
2018-06-24T09:06:00.654Z,100439.78
2018-06-24T09:07:41.671Z,100378.39
2018-06-24T09:09:21.368Z,100279.43
2018-06-24T09:10:58.137Z,100215.00
2018-06-24T09:12:37.567Z,100148.95
2018-06-24T09:14:14.160Z,100123.55
2018-06-24T09:15:51.865Z,100090.28
2018-06-24T09:17:32.474Z,100022.47
2018-06-24T09:19:09.874Z,99968.83
2018-06-24T09:20:51.115Z,100025.52
2018-06-24T09:22:33.543Z,100019.25
2018-06-24T09:24:16.248Z,99967.40
2018-06-24T09:27:38.934Z,99791.06
2018-06-24T09:29:19.652Z,99767.17
2018-06-24T09:30:56.218Z,99695.80
2018-06-24T09:32:34.512Z,99653.94
2018-06-24T09:34:12.426Z,99694.09
2018-06-24T09:35:55.755Z,99763.22
2018-06-24T09:37:32.817Z,99871.25
2018-06-24T09:39:12.329Z,99888.58
2018-06-24T09:40:53.668Z,99964.31
2018-06-24T09:42:34.309Z,100032.11
2018-06-24T09:44:12.371Z,99956.22
2018-06-24T09:45:50.642Z,99916.36
2018-06-24T09:47:30.223Z,99978.47
2018-06-24T09:49:18.978Z,100031.62
2018-06-24T09:50:59.252Z,100060.87
2018-06-24T09:52:38.830Z,100004.14
2018-06-24T09:54:17.917Z,99953.60
2018-06-24T09:55:59.517Z,99868.55
2018-06-24T09:57:40.029Z,99893.77
2018-06-24T09:59:17.904Z,99826.89
2018-06-24T10:00:55.539Z,99828.64
2018-06-24T10:02:36.467Z,99863.16
2018-06-24T10:04:13.200Z,99872.39
2018-06-24T10:05:49.596Z,99798.09
2018-06-24T10:07:25.848Z,99819.77
2018-06-24T10:09:03.057Z,99829.03
2018-06-24T10:10:39.691Z,99863.64
2018-06-24T10:12:18.449Z,99981.56
2018-06-24T10:13:56.747Z,100048.02
2018-06-24T10:15:33.440Z,100005.77
2018-06-24T10:17:15.345Z,100014.37
2018-06-24T10:18:55.323Z,100070.60
2018-06-24T10:20:45.313Z,100045.32
2018-06-24T10:22:24.482Z,100062.22
2018-06-24T10:24:06.443Z,100016.87
2018-06-24T10:25:46.752Z,100003.58
2018-06-24T10:27:26.224Z,99920.25
2018-06-24T10:29:27.339Z,99988.98
2018-06-24T10:31:09.539Z,100128.71
2018-06-24T10:32:51.209Z,100241.94
2018-06-24T10:34:29.973Z,100265.77
2018-06-24T10:36:07.935Z,100245.36
2018-06-24T10:37:49.476Z,100249.80
2018-06-24T10:39:28.884Z,100336.47
2018-06-24T10:41:07.292Z,100362.73
2018-06-24T10:42:45.507Z,100407.14
2018-06-24T10:44:24.843Z,100406.16
2018-06-24T10:46:20.690Z,100396.81
2018-06-24T10:48:01.517Z,100356.38
2018-06-24T10:49:41.421Z,100365.28
2018-06-24T10:51:20.629Z,100458.66
2018-06-24T10:53:07.663Z,100614.75
2018-06-24T10:54:47.696Z,100605.36
2018-06-24T10:56:30.912Z,100409.27
2018-06-24T10:58:16.569Z,100354.56
2018-06-24T10:59:56.979Z,100447.95
2018-06-24T11:01:38.599Z,100463.98
2018-06-24T11:03:20.357Z,100435.94
2018-06-24T11:05:05.498Z,100447.48
2018-06-24T11:06:44.725Z,100366.08
2018-06-24T11:08:23.198Z,100279.48
2018-06-24T11:10:03.478Z,100225.27
2018-06-24T11:11:41.757Z,100203.53
2018-06-24T11:13:22.577Z,100210.20
2018-06-24T11:14:59.723Z,100275.03
2018-06-24T11:16:40.887Z,100276.30
2018-06-24T11:18:19.592Z,100266.94
2018-06-24T11:19:57.614Z,100271.86
2018-06-24T11:21:36.525Z,100246.08
2018-06-24T11:23:22.943Z,100170.72
2018-06-24T11:25:03.333Z,100322.96
2018-06-24T11:26:40.728Z,100463.35
2018-06-24T11:28:28.458Z,100548.66
2018-06-24T11:30:09.515Z,100617.27
2018-06-24T11:31:50.950Z,100659.41
2018-06-24T11:33:28.064Z,100684.88
2018-06-24T11:35:05.954Z,100701.26
2018-06-24T11:36:43.008Z,100690.98
2018-06-24T11:38:21.448Z,100694.57
2018-06-24T11:39:57.883Z,100656.70
2018-06-24T11:41:37.475Z,100526.81
2018-06-24T11:43:36.069Z,100449.44
2018-06-24T11:45:35.382Z,100475.66
2018-06-24T11:47:19.834Z,100456.59
2018-06-24T11:48:59.845Z,100404.95
2018-06-24T11:50:38.069Z,100401.48
2018-06-24T11:52:15.142Z,100459.19
2018-06-24T11:53:51.689Z,100462.30
2018-06-24T11:55:32.656Z,100489.78
2018-06-24T11:57:09.824Z,100454.66
2018-06-24T11:58:48.646Z,100462.30
2018-06-24T12:00:32.152Z,100403.59
2018-06-24T12:02:09.915Z,100479.52
2018-06-24T12:03:49.576Z,100577.84
2018-06-24T12:05:28.251Z,100490.19
2018-06-24T12:07:06.771Z,100475.47
2018-06-24T12:08:43.162Z,100528.38
2018-06-24T12:10:25.814Z,100648.59
2018-06-24T12:12:04.273Z,100773.63
2018-06-24T12:13:42.964Z,100755.27
2018-06-24T12:15:20.642Z,100823.45
2018-06-24T12:16:59.366Z,100843.49
2018-06-24T12:18:39.280Z,100863.95
2018-06-24T12:20:16.745Z,100748.09
2018-06-24T12:21:54.415Z,100608.34
2018-06-24T12:23:31.952Z,100515.34
2018-06-24T12:26:44.296Z,100634.19
2018-06-24T12:28:27.293Z,100689.70
2018-06-24T12:30:05.589Z,100644.85
2018-06-24T12:31:43.748Z,100479.37
2018-06-24T12:33:25.049Z,100460.31
2018-06-24T12:35:04.638Z,100505.55
2018-06-24T12:36:43.345Z,100553.50
2018-06-24T12:38:20.541Z,100580.69
2018-06-24T12:39:57.556Z,100585.14
2018-06-24T12:41:34.140Z,100568.70
2018-06-24T12:43:20.551Z,100534.44
2018-06-24T12:45:00.461Z,100531.30
2018-06-24T12:46:40.537Z,100519.72
2018-06-24T12:48:21.812Z,100552.55
2018-06-24T12:50:04.315Z,100562.41
2018-06-24T12:51:51.590Z,100545.87
2018-06-24T12:53:31.510Z,100551.28
2018-06-24T12:55:14.293Z,100522.27
2018-06-24T12:56:54.154Z,100552.08
2018-06-24T12:58:32.533Z,100615.65
2018-06-24T13:00:14.706Z,100522.31
2018-06-24T13:03:35.684Z,100438.69
2018-06-24T13:05:16.617Z,100481.73
2018-06-24T13:06:53.702Z,100443.50
2018-06-24T13:08:34.556Z,100443.91
2018-06-24T13:10:13.755Z,100350.14
2018-06-24T13:11:52.822Z,100283.05
2018-06-24T13:13:36.566Z,100235.53
2018-06-24T13:15:18.945Z,100204.05
2018-06-24T13:17:00.289Z,100224.04
2018-06-24T13:18:38.252Z,100190.16
2018-06-24T13:20:14.592Z,100187.94
2018-06-24T13:21:54.279Z,100195.00
2018-06-24T13:23:36.950Z,100238.55
2018-06-24T13:25:14.606Z,100259.88
2018-06-24T13:26:53.442Z,100273.23
2018-06-24T13:28:32.608Z,100358.45
2018-06-24T13:30:11.978Z,100427.36
2018-06-24T13:31:52.217Z,100395.78
2018-06-24T13:33:31.563Z,100266.95
2018-06-24T13:35:09.560Z,100242.52
2018-06-24T13:36:46.322Z,100298.83
2018-06-24T13:38:26.806Z,100350.74
2018-06-24T13:40:06.616Z,100382.83
2018-06-24T13:41:46.128Z,100376.07
2018-06-24T13:43:24.152Z,100329.88
2018-06-24T13:45:04.144Z,100338.73
2018-06-24T13:46:47.367Z,100249.47
2018-06-24T13:48:27.514Z,100229.17
2018-06-24T13:50:11.372Z,100275.73
2018-06-24T13:51:52.669Z,100293.91
2018-06-24T13:53:31.622Z,100364.94
2018-06-24T13:55:10.208Z,100392.89
2018-06-24T13:56:51.710Z,100384.97
2018-06-24T13:58:29.454Z,100381.77
2018-06-24T14:00:14.815Z,100408.36
2018-06-24T14:01:51.345Z,100431.95
2018-06-24T14:03:31.093Z,100377.34
2018-06-24T14:05:11.243Z,100269.38
2018-06-24T14:06:49.679Z,100267.63
2018-06-24T14:08:31.721Z,100357.23
2018-06-24T14:10:11.162Z,100394.09
2018-06-24T14:11:53.790Z,100384.78
2018-06-24T14:13:30.437Z,100289.30
2018-06-24T14:15:07.336Z,100337.23
2018-06-24T14:16:47.448Z,100330.16
2018-06-24T14:18:26.536Z,100302.61
2018-06-24T14:20:06.352Z,100342.16
2018-06-24T14:21:45.601Z,100430.59
2018-06-24T14:23:24.455Z,100354.12
2018-06-24T14:25:02.150Z,100338.11
2018-06-24T14:26:38.870Z,100367.88
2018-06-24T14:28:19.580Z,100417.67
2018-06-24T14:29:59.310Z,100466.99
2018-06-24T14:31:37.083Z,100487.92
2018-06-24T14:33:14.678Z,100522.62
2018-06-24T14:34:54.193Z,100468.71
2018-06-24T14:36:31.026Z,100449.66
2018-06-24T14:38:10.973Z,100360.73
2018-06-24T14:39:48.426Z,100238.59
2018-06-24T14:41:29.502Z,100110.70
2018-06-24T14:43:10.766Z,100057.43
2018-06-24T14:44:58.563Z,99995.48
2018-06-24T14:46:36.109Z,99987.39
2018-06-24T14:48:14.098Z,100075.66
2018-06-24T14:49:51.890Z,100173.28
2018-06-24T14:51:29.004Z,100207.41
2018-06-24T14:53:07.863Z,100234.94
2018-06-24T14:54:48.026Z,100242.84
2018-06-24T14:56:30.641Z,100297.61
2018-06-24T14:58:09.545Z,100306.50
2018-06-24T14:59:47.443Z,100298.88
2018-06-24T15:01:27.198Z,100239.75
2018-06-24T15:03:07.365Z,100261.67
2018-06-24T15:04:46.203Z,100282.94
2018-06-24T15:06:25.244Z,100278.88
2018-06-24T15:08:03.068Z,100252.30
2018-06-24T15:09:40.939Z,100191.36
2018-06-24T15:11:17.981Z,100142.11
2018-06-24T15:12:54.740Z,100046.80
2018-06-24T15:14:32.817Z,99942.16
2018-06-24T15:16:10.469Z,99967.98
2018-06-24T15:17:46.549Z,100000.68
2018-06-24T15:19:25.072Z,100042.75
2018-06-24T15:21:02.399Z,100056.00
2018-06-24T15:22:41.604Z,100003.30
2018-06-24T15:24:18.024Z,99939.46
2018-06-24T15:25:58.514Z,99983.81
2018-06-24T15:27:36.679Z,100013.06
2018-06-24T15:29:14.269Z,100014.77
2018-06-24T15:30:50.491Z,100052.91
2018-06-24T15:32:29.626Z,100103.95
2018-06-24T15:34:08.570Z,100123.37
2018-06-24T15:35:46.492Z,100136.23
2018-06-24T15:37:25.529Z,100166.45
2018-06-24T15:39:04.168Z,100190.41
2018-06-24T15:40:44.181Z,100211.27
2018-06-24T15:42:22.943Z,100167.33
2018-06-24T15:43:59.753Z,100096.33
2018-06-24T15:45:36.949Z,100092.36
2018-06-24T15:47:13.973Z,100117.26
2018-06-24T15:48:51.440Z,100135.05
2018-06-24T15:50:29.497Z,100139.33
2018-06-24T15:52:12.260Z,100197.08
2018-06-24T15:53:52.621Z,100132.73
2018-06-24T15:55:31.212Z,100075.02
2018-06-24T15:57:10.516Z,100106.06
2018-06-24T15:58:47.933Z,100062.16
2018-06-24T16:00:29.037Z,100067.95
2018-06-24T16:02:12.769Z,100151.48
2018-06-24T16:03:49.925Z,100185.08
2018-06-24T16:05:28.520Z,100197.95
2018-06-24T16:07:06.607Z,100238.80
2018-06-24T16:08:46.509Z,100235.70
2018-06-24T16:10:27.320Z,100220.63
2018-06-24T16:12:08.653Z,100085.70
2018-06-24T16:13:46.429Z,99972.63
2018-06-24T16:15:28.593Z,99976.20
2018-06-24T16:17:06.363Z,99994.80
2018-06-24T16:18:44.560Z,100005.05
2018-06-24T16:20:22.443Z,99939.46
2018-06-24T16:22:00.354Z,99799.38
2018-06-24T16:23:39.732Z,99654.67
2018-06-24T16:25:17.645Z,99607.78
2018-06-24T16:26:54.532Z,99541.96
2018-06-24T16:28:35.185Z,99494.23
2018-06-24T16:30:34.830Z,99457.97
2018-06-24T16:32:15.508Z,99572.00
2018-06-24T16:33:53.702Z,99528.19
2018-06-24T16:35:31.729Z,99570.73
2018-06-24T16:37:15.840Z,99616.65
2018-06-24T16:38:54.259Z,99603.35
2018-06-24T16:40:33.054Z,99621.09
2018-06-24T16:42:15.421Z,99660.05
2018-06-24T16:43:53.763Z,99636.09
2018-06-24T16:45:36.840Z,99717.09
2018-06-24T16:47:16.198Z,99787.02
2018-06-24T16:48:53.518Z,99778.15
2018-06-24T16:50:32.616Z,99759.16
2018-06-24T16:52:09.419Z,99815.00
2018-06-24T16:53:48.637Z,99887.19
2018-06-24T16:55:27.178Z,99835.25
2018-06-24T16:57:06.210Z,99819.44
2018-06-24T16:58:42.540Z,99793.67
2018-06-24T17:00:29.565Z,99746.25
2018-06-24T17:02:16.672Z,99771.49
2018-06-24T17:03:53.104Z,99803.03
2018-06-24T17:05:31.112Z,99820.27
2018-06-24T17:07:07.571Z,99787.02
2018-06-24T17:08:44.628Z,99818.56
2018-06-24T17:10:21.666Z,99780.84
2018-06-24T17:11:58.506Z,99779.49
2018-06-24T17:13:36.628Z,99719.30
2018-06-24T17:15:16.824Z,99698.11
2018-06-24T17:16:56.814Z,99740.19
2018-06-24T17:18:40.771Z,99732.19
2018-06-24T17:20:17.395Z,99795.98
2018-06-24T17:21:53.794Z,99795.11
2018-06-24T17:23:30.750Z,99695.98
2018-06-24T17:25:13.092Z,99692.89
2018-06-24T17:26:49.765Z,99660.05
2018-06-24T17:28:27.089Z,99642.83
2018-06-24T17:30:06.812Z,99586.69
2018-06-24T17:31:47.397Z,99598.17
2018-06-24T17:33:27.100Z,99621.65
2018-06-24T17:35:08.750Z,99613.56
2018-06-24T17:36:48.562Z,99570.34
2018-06-24T17:38:27.333Z,99581.42
2018-06-24T17:40:08.456Z,99623.39
2018-06-24T17:41:48.090Z,99598.64
2018-06-24T17:43:28.119Z,99650.05
2018-06-24T17:45:06.449Z,99688.84
2018-06-24T17:46:45.413Z,99702.72
2018-06-24T17:48:28.471Z,99740.19
2018-06-24T17:50:06.660Z,99812.47
2018-06-24T17:51:48.458Z,99813.42
2018-06-24T17:53:26.974Z,99784.49
2018-06-24T17:55:07.437Z,99808.91
2018-06-24T17:56:49.113Z,99828.36
2018-06-24T17:58:28.879Z,99820.08
2018-06-24T18:00:07.187Z,99752.71
2018-06-24T18:01:47.394Z,99750.49
2018-06-24T18:03:33.400Z,99795.67
2018-06-24T18:05:17.859Z,99856.43
2018-06-24T18:06:54.725Z,99931.22
2018-06-24T18:08:31.781Z,99982.75
2018-06-24T18:10:09.018Z,99953.91
2018-06-24T18:11:47.023Z,99917.54
2018-06-24T18:13:24.108Z,99821.43
2018-06-24T18:15:03.296Z,99764.25
2018-06-24T18:16:46.527Z,99613.86
2018-06-24T18:18:24.505Z,99763.77
2018-06-24T18:20:02.295Z,99817.39
2018-06-24T18:21:45.119Z,99894.50
2018-06-24T18:23:21.474Z,99889.30
2018-06-24T18:24:58.149Z,99833.00
2018-06-24T18:27:08.207Z,99789.02
2018-06-24T18:28:46.792Z,99757.71
2018-06-24T18:30:27.881Z,99804.23
2018-06-24T18:32:05.212Z,99776.30
2018-06-24T18:33:43.332Z,99727.56
2018-06-24T18:35:20.713Z,99705.50
2018-06-24T18:36:59.765Z,99692.23
2018-06-24T18:38:37.613Z,99633.38
2018-06-24T18:40:19.712Z,99645.34
2018-06-24T18:41:58.198Z,99687.87
2018-06-24T18:43:40.193Z,99703.76
2018-06-24T18:45:21.575Z,99692.70
2018-06-24T18:47:03.345Z,99704.63
2018-06-24T18:48:41.912Z,99767.06
2018-06-24T18:50:24.038Z,99840.30
2018-06-24T18:52:08.168Z,99822.86
2018-06-24T18:53:47.567Z,99896.05
2018-06-24T18:55:34.526Z,99953.20
2018-06-24T18:57:16.239Z,100015.72
2018-06-24T18:59:00.203Z,100056.92
2018-06-24T19:00:50.300Z,100061.84
2018-06-24T19:02:30.397Z,100065.02
2018-06-24T19:04:09.670Z,100076.88
2018-06-24T19:05:50.378Z,100111.53
2018-06-24T19:07:30.113Z,100131.03
2018-06-24T19:09:15.176Z,100080.45
2018-06-24T19:10:56.265Z,99995.77
2018-06-24T19:12:38.119Z,99978.58
2018-06-24T19:14:16.126Z,99998.94
2018-06-24T19:15:56.838Z,99996.72